createdAt,value
2022-11-04T00:02:28.958Z,7.20
2022-11-04T00:04:57.995Z,6.37
2022-11-04T00:07:54.465Z,7.47
2022-11-04T00:13:36.384Z,6.97
2022-11-04T00:16:26.400Z,6.13
2022-11-04T00:19:02.506Z,6.90
2022-11-04T00:21:52.861Z,6.03
2022-11-04T00:24:49.863Z,6.60
2022-11-04T00:27:44.820Z,5.27
2022-11-04T00:30:16.558Z,5.67
2022-11-04T00:33:14.568Z,6.10
2022-11-04T00:35:47.936Z,6.27
2022-11-04T00:38:22.046Z,6.77
2022-11-04T00:40:53.505Z,6.53
2022-11-04T00:43:27.515Z,7.03
2022-11-04T00:46:01.086Z,5.77
2022-11-04T00:48:33.393Z,5.47
2022-11-04T00:51:06.860Z,6.57
2022-11-04T00:53:33.587Z,7.20
2022-11-04T00:56:02.993Z,6.13
2022-11-04T00:58:31.607Z,6.73
2022-11-04T01:01:01.189Z,6.43
2022-11-04T01:03:27.986Z,6.70
2022-11-04T01:05:58.101Z,7.10
2022-11-04T01:08:31.166Z,6.60
2022-11-04T01:11:10.218Z,7.23
2022-11-04T01:13:40.180Z,6.17
2022-11-04T01:16:17.573Z,6.90
2022-11-04T01:18:48.012Z,6.60
2022-11-04T01:21:26.736Z,6.00
2022-11-04T01:23:53.369Z,6.47
2022-11-04T01:26:28.191Z,5.83
2022-11-04T01:28:56.916Z,6.87
2022-11-04T01:31:30.859Z,5.60
2022-11-04T01:34:06.864Z,6.90
2022-11-04T01:36:33.457Z,5.90
2022-11-04T01:39:05.822Z,6.27
2022-11-04T01:41:41.483Z,6.43
2022-11-04T01:44:49.526Z,6.70
2022-11-04T01:47:41.926Z,6.80
2022-11-04T01:50:26.698Z,6.50
2022-11-04T01:53:09.442Z,7.13
2022-11-04T01:55:52.947Z,6.90
2022-11-04T01:58:58.105Z,6.63
2022-11-04T02:01:29.715Z,7.67
2022-11-04T02:04:29.663Z,6.70
2022-11-04T02:07:08.523Z,6.60
2022-11-04T02:09:49.867Z,6.70
2022-11-04T02:12:35.407Z,7.50
2022-11-04T02:15:03.494Z,7.40
2022-11-04T02:18:00.237Z,7.47
2022-11-04T02:20:42.086Z,5.43
2022-11-04T02:23:28.044Z,5.97
2022-11-04T02:26:19.065Z,6.37
2022-11-04T02:29:15.363Z,6.57
2022-11-04T02:32:16.997Z,6.07
2022-11-04T02:34:57.577Z,6.83
2022-11-04T02:38:13.477Z,6.77
2022-11-04T02:40:56.936Z,6.80
2022-11-04T02:43:53.001Z,6.87
2022-11-04T02:46:31.861Z,6.60
2022-11-04T02:52:00.330Z,7.43
2022-11-04T02:54:46.597Z,7.37
2022-11-04T02:57:35.210Z,7.03
2022-11-04T03:00:21.792Z,6.43
2022-11-04T03:03:00.545Z,7.00
2022-11-04T03:05:34.958Z,7.60
2022-11-04T03:08:08.478Z,6.63
2022-11-04T03:10:55.071Z,7.57
2022-11-04T03:14:02.195Z,6.47
2022-11-04T03:16:54.787Z,7.77
2022-11-04T03:19:45.491Z,8.83
2022-11-04T03:22:33.058Z,8.40
2022-11-04T03:25:02.254Z,7.53
2022-11-04T03:30:30.977Z,7.47
2022-11-04T03:33:19.232Z,7.80
2022-11-04T03:35:57.684Z,7.43
2022-11-04T03:41:18.647Z,7.10
2022-11-04T03:43:56.754Z,6.77
2022-11-04T03:46:35.987Z,7.23
2022-11-04T03:51:50.256Z,6.37
2022-11-04T03:54:22.662Z,7.73
2022-11-04T03:56:49.250Z,6.83
2022-11-04T03:59:44.976Z,6.80
2022-11-04T04:02:23.540Z,8.00
2022-11-04T04:05:02.899Z,7.57
2022-11-04T04:07:43.764Z,6.77
2022-11-04T04:10:48.566Z,7.60
2022-11-04T04:13:29.764Z,7.73
2022-11-04T04:16:27.218Z,7.13
2022-11-04T04:19:24.558Z,7.10
2022-11-04T04:22:02.518Z,7.43
2022-11-04T04:24:57.850Z,6.93
2022-11-04T04:30:19.687Z,6.97
2022-11-04T04:32:50.916Z,7.10
2022-11-04T04:35:36.297Z,7.57
2022-11-04T04:38:26.114Z,7.87
2022-11-04T04:41:31.543Z,7.37
2022-11-04T04:44:26.701Z,7.10
2022-11-04T04:47:01.217Z,7.40
2022-11-04T04:49:47.174Z,7.83
2022-11-04T04:52:21.097Z,8.00
2022-11-04T04:54:56.034Z,8.10
2022-11-04T04:57:30.458Z,8.20
2022-11-04T05:00:00.826Z,6.93
2022-11-04T05:02:27.732Z,9.30
2022-11-04T05:05:03.148Z,7.70
2022-11-04T05:10:21.171Z,8.07
2022-11-04T05:13:12.106Z,8.80
2022-11-04T05:15:47.166Z,8.13
2022-11-04T05:18:18.976Z,8.23
2022-11-04T05:20:45.721Z,8.30
2022-11-04T05:23:18.900Z,8.53
2022-11-04T05:25:47.616Z,9.27
2022-11-04T05:28:18.195Z,8.43
2022-11-04T05:30:53.961Z,9.70
2022-11-04T05:33:26.023Z,9.23
2022-11-04T05:35:59.043Z,9.97
2022-11-04T05:38:29.872Z,11.67
2022-11-04T05:41:05.682Z,12.93
2022-11-04T05:43:38.400Z,11.10
2022-11-04T05:46:05.212Z,10.23
2022-11-04T05:48:40.052Z,9.90
2022-11-04T05:51:07.121Z,8.20
2022-11-04T05:53:33.742Z,10.10
2022-11-04T05:56:48.144Z,12.67
